Time;durP1;ratioP1;P1;durP2;ratioP2;P2;SDS_P1;SDS_P2;PMS_P1;PMS_P2;Temp;Humidity;BMP_temperature;BMP_pressure;BME280_temperature;BME280_humidity;BME280_pressure;Samples;Min_cycle;Max_cycle;Signal;HPM_P1;HPM_P2
2022/11/12 00:02:13;;;;;;;17.05;10.32;;;6.00;80.00;;;;;;5054502;28;20053;-80
2022/11/12 00:04:39;;;;;;;13.98;9.07;;;6.00;80.00;;;;;;5054511;28;20478;-77
2022/11/12 00:07:04;;;;;;;17.65;8.90;;;6.00;79.90;;;;;;5054487;28;20021;-77
2022/11/12 00:09:30;;;;;;;22.05;12.90;;;6.00;79.90;;;;;;5054515;28;20473;-77
2022/11/12 00:11:56;;;;;;;14.00;8.77;;;6.00;79.70;;;;;;5054359;28;20458;-77
2022/11/12 00:14:21;;;;;;;15.30;9.00;;;5.80;79.30;;;;;;5054344;28;20028;-77
2022/11/12 00:16:47;;;;;;;15.35;9.70;;;5.80;79.60;;;;;;5054277;28;20060;-77
2022/11/12 00:19:12;;;;;;;14.05;9.63;;;5.80;80.00;;;;;;5054241;28;20025;-75
2022/11/12 00:21:38;;;;;;;17.38;10.75;;;5.70;79.80;;;;;;5054352;28;20033;-80
2022/11/12 00:24:04;;;;;;;14.93;9.48;;;5.70;79.90;;;;;;5053745;28;20530;-78
2022/11/12 00:26:29;;;;;;;12.20;8.25;;;5.70;80.00;;;;;;5054059;28;20025;-79
2022/11/12 00:28:55;;;;;;;10.43;7.40;;;5.60;79.50;;;;;;5054210;28;20044;-78
2022/11/12 00:31:20;;;;;;;10.10;6.45;;;5.50;79.60;;;;;;5053951;28;20068;-78
2022/11/12 00:33:46;;;;;;;9.23;7.15;;;5.50;80.00;;;;;;5053786;28;20062;-77
2022/11/12 00:36:12;;;;;;;13.00;6.80;;;5.40;81.20;;;;;;5052736;28;20036;-81
2022/11/12 00:38:37;;;;;;;11.23;7.22;;;5.30;82.40;;;;;;5053822;28;20020;-80
2022/11/12 00:41:03;;;;;;;10.05;6.47;;;5.30;83.40;;;;;;5053977;28;20112;-78
2022/11/12 00:43:29;;;;;;;11.68;7.90;;;5.30;83.80;;;;;;5053675;28;20489;-78
2022/11/12 00:45:54;;;;;;;10.40;7.40;;;5.30;83.40;;;;;;5053799;28;20465;-79
2022/11/12 00:48:20;;;;;;;14.48;7.40;;;5.20;83.00;;;;;;5053749;28;20029;-77
2022/11/12 00:50:45;;;;;;;12.10;7.70;;;5.10;83.40;;;;;;5053561;28;20031;-77
2022/11/12 00:53:11;;;;;;;10.95;7.20;;;5.10;83.80;;;;;;5053624;28;20022;-78
2022/11/12 00:55:36;;;;;;;11.63;7.05;;;5.10;84.00;;;;;;5053810;28;20033;-77
2022/11/12 00:58:02;;;;;;;11.27;6.90;;;5.20;83.90;;;;;;5053118;28;20111;-78
2022/11/12 01:00:27;;;;;;;9.20;6.65;;;5.20;83.80;;;;;;5053230;28;20021;-78
2022/11/12 01:02:54;;;;;;;10.95;6.68;;;5.20;83.00;;;;;;5052029;28;20029;-78
2022/11/12 01:05:19;;;;;;;11.15;7.32;;;5.10;82.90;;;;;;5053173;28;20048;-82
2022/11/12 01:07:45;;;;;;;7.85;5.60;;;5.00;83.00;;;;;;5052991;28;20048;-77
2022/11/12 01:10:12;;;;;;;9.25;6.05;;;5.10;84.00;;;;;;5053338;28;20024;-77
2022/11/12 01:12:38;;;;;;;7.82;5.75;;;5.10;84.30;;;;;;5053509;28;20147;-77
2022/11/12 01:15:05;;;;;;;11.35;6.40;;;5.20;84.30;;;;;;5056776;28;20728;-76
2022/11/12 01:17:31;;;;;;;10.82;5.65;;;5.20;83.90;;;;;;5053889;28;20032;-75
2022/11/12 01:19:56;;;;;;;8.43;5.35;;;5.30;83.60;;;;;;5052228;28;20382;-75
2022/11/12 01:22:22;;;;;;;8.85;5.63;;;5.30;83.20;;;;;;5053055;28;20068;-75
2022/11/12 01:24:48;;;;;;;8.57;5.53;;;5.30;83.30;;;;;;5053121;28;20021;-74
2022/11/12 01:27:13;;;;;;;8.75;5.57;;;5.30;83.00;;;;;;5053007;28;20071;-75
2022/11/12 01:29:39;;;;;;;8.45;5.60;;;5.30;82.40;;;;;;5053018;28;20474;-76
2022/11/12 01:32:05;;;;;;;8.45;6.03;;;5.30;82.10;;;;;;5052734;28;20056;-75
2022/11/12 01:34:31;;;;;;;9.45;5.40;;;5.30;81.80;;;;;;5052630;28;20386;-75
2022/11/12 01:36:57;;;;;;;9.30;5.85;;;5.30;81.50;;;;;;5035000;28;20032;-75
2022/11/12 01:39:23;;;;;;;7.35;5.32;;;5.30;81.00;;;;;;5052787;28;20032;-75
2022/11/12 01:41:48;;;;;;;9.10;5.90;;;5.30;80.90;;;;;;5034998;28;20103;-75
2022/11/12 01:44:29;;;;;;;8.00;5.65;;;5.30;80.70;;;;;;5035148;28;20024;-74
2022/11/12 01:46:57;;;;;;;8.50;5.88;;;5.30;80.30;;;;;;5052774;28;20021;-75
2022/11/12 01:49:48;;;;;;;9.02;5.30;;;5.30;79.90;;;;;;5052696;28;20028;-76
2022/11/12 01:52:26;;;;;;;8.65;5.75;;;5.20;79.60;;;;;;5052989;28;20021;-78
2022/11/12 01:54:54;;;;;;;9.15;6.22;;;5.20;79.50;;;;;;5055567;28;20021;-78
2022/11/12 01:57:30;;;;;;;10.25;6.28;;;5.20;79.40;;;;;;5052785;28;20033;-78
2022/11/12 02:00:03;;;;;;;9.20;6.22;;;5.20;79.10;;;;;;5052836;28;20103;-77
2022/11/12 02:02:29;;;;;;;11.32;6.88;;;5.20;78.90;;;;;;5044742;28;20065;-77
2022/11/12 02:04:55;;;;;;;10.52;6.97;;;5.10;79.00;;;;;;5052461;28;20039;-77
2022/11/12 02:07:23;;;;;;;10.10;6.32;;;5.10;78.90;;;;;;5035028;28;20017;-77
2022/11/12 02:09:49;;;;;;;10.15;6.72;;;5.10;79.00;;;;;;5056994;28;20021;-90
2022/11/12 02:13:56;;;;;;;8.95;6.00;;;5.00;78.90;;;;;;5059244;28;20025;-74
2022/11/12 02:15:02;;;;;;;9.75;6.55;;;5.00;79.00;;;;;;5056738;28;20025;-77
2022/11/12 02:17:28;;;;;;;8.85;5.53;;;5.00;79.20;;;;;;5056702;28;20482;-77
2022/11/12 02:19:57;;;;;;;8.40;5.30;;;5.00;79.20;;;;;;5056521;28;20036;-75
2022/11/12 02:22:23;;;;;;;7.07;5.18;;;5.00;79.40;;;;;;5056462;28;20025;-75
2022/11/12 02:24:49;;;;;;;7.30;5.15;;;5.00;79.60;;;;;;5055803;28;20021;-75
2022/11/12 02:27:14;;;;;;;7.97;5.25;;;5.00;79.80;;;;;;5056126;28;20095;-75
2022/11/12 02:29:45;;;;;;;6.70;4.53;;;5.00;80.00;;;;;;5056207;28;20029;-75
2022/11/12 02:32:11;;;;;;;7.45;4.68;;;4.90;80.10;;;;;;5056125;28;20044;-74
2022/11/12 02:34:38;;;;;;;7.50;5.00;;;5.00;80.10;;;;;;5055974;28;20031;-76
2022/11/12 02:37:04;;;;;;;8.20;4.55;;;4.90;80.00;;;;;;5056210;28;20033;-75
2022/11/12 02:39:30;;;;;;;7.53;4.65;;;4.90;80.00;;;;;;5055936;28;20554;-75
2022/11/12 02:41:55;;;;;;;7.10;4.15;;;4.90;79.90;;;;;;5055973;28;20028;-75
2022/11/12 02:44:21;;;;;;;5.20;4.05;;;4.90;80.10;;;;;;5055950;28;20370;-75
2022/11/12 02:46:46;;;;;;;4.15;3.63;;;4.80;79.50;;;;;;5055964;28;20422;-75
2022/11/12 02:49:12;;;;;;;5.13;3.90;;;4.90;79.80;;;;;;5055578;28;20074;-75
2022/11/12 02:51:38;;;;;;;6.38;4.57;;;4.90;79.80;;;;;;5055996;28;20029;-75
2022/11/12 02:54:03;;;;;;;5.45;3.97;;;4.90;79.70;;;;;;5037869;28;20029;-76
2022/11/12 02:56:29;;;;;;;7.05;4.43;;;4.90;79.70;;;;;;5054321;28;20501;-75
2022/11/12 02:58:55;;;;;;;6.50;4.05;;;4.90;79.40;;;;;;5055967;28;20110;-75
2022/11/12 03:01:20;;;;;;;5.15;3.92;;;4.90;79.40;;;;;;5055707;28;20043;-75
2022/11/12 03:03:46;;;;;;;5.97;4.40;;;4.90;79.40;;;;;;5055590;28;20319;-75
2022/11/12 03:06:11;;;;;;;5.40;4.13;;;4.90;79.30;;;;;;5055324;28;20033;-75
2022/11/12 03:08:37;;;;;;;5.72;4.07;;;4.90;79.10;;;;;;5055495;28;20021;-76
2022/11/12 03:11:12;;;;;;;5.70;4.32;;;4.90;78.90;;;;;;5054275;28;20025;-76
2022/11/12 03:13:38;;;;;;;6.78;4.60;;;4.90;78.80;;;;;;5055486;28;20064;-75
2022/11/12 03:16:04;;;;;;;5.13;3.85;;;4.80;78.40;;;;;;5055175;28;20109;-76
2022/11/12 03:18:30;;;;;;;5.90;4.00;;;4.80;78.50;;;;;;5055441;28;20446;-80
2022/11/12 03:20:55;;;;;;;5.32;4.05;;;4.70;79.00;;;;;;5056026;28;20092;-85
2022/11/12 03:23:21;;;;;;;5.40;3.60;;;4.70;79.00;;;;;;5055488;28;20025;-77
2022/11/12 03:25:47;;;;;;;6.28;3.70;;;4.70;79.10;;;;;;5055424;28;20028;-77
2022/11/12 03:28:14;;;;;;;4.22;3.13;;;4.60;78.90;;;;;;5055421;28;20049;-78
2022/11/12 03:30:41;;;;;;;5.05;3.53;;;4.60;79.00;;;;;;5055183;28;20059;-77
2022/11/12 03:33:08;;;;;;;4.82;3.22;;;4.60;79.20;;;;;;5055148;28;20045;-78
2022/11/12 03:35:35;;;;;;;4.32;3.35;;;4.60;79.20;;;;;;5055023;28;20494;-79
2022/11/12 03:38:02;;;;;;;4.50;3.33;;;4.70;79.30;;;;;;5036221;28;20644;-78
2022/11/12 03:40:28;;;;;;;4.72;3.55;;;4.60;79.30;;;;;;5035161;28;20033;-80
2022/11/12 03:42:54;;;;;;;4.57;3.53;;;4.60;79.50;;;;;;5034016;28;20028;-76
2022/11/12 03:45:22;;;;;;;5.68;3.70;;;4.50;79.60;;;;;;5035125;28;20543;-76
2022/11/12 03:47:50;;;;;;;5.35;4.13;;;4.50;79.70;;;;;;5034711;28;20394;-79
2022/11/12 03:50:18;;;;;;;8.05;4.03;;;4.50;80.70;;;;;;5035765;28;20083;-88
2022/11/12 03:52:47;;;;;;;6.47;4.07;;;4.50;81.30;;;;;;5036008;28;20064;-81
2022/11/12 03:55:14;;;;;;;5.68;3.67;;;4.50;81.00;;;;;;5035440;28;20025;-75
2022/11/12 03:57:40;;;;;;;5.13;3.70;;;4.40;80.90;;;;;;5034511;28;20048;-75
2022/11/12 04:00:07;;;;;;;6.70;3.42;;;4.40;81.50;;;;;;5034322;28;20013;-75
2022/11/12 04:02:33;;;;;;;5.95;3.38;;;4.30;81.30;;;;;;5034498;28;20387;-74
2022/11/12 04:10:28;;;;;;;6.05;3.78;;;4.40;83.30;;;;;;5034262;28;20056;-75
2022/11/12 04:15:38;;;;;;;4.18;2.47;;;4.30;84.60;;;;;;5034627;28;20029;-76
2022/11/12 04:23:32;;;;;;;2.63;2.05;;;4.50;84.40;;;;;;5034293;28;20089;-75
2022/11/12 04:31:27;;;;;;;2.88;2.30;;;4.70;83.50;;;;;;5034965;28;20786;-76
2022/11/12 04:33:52;;;;;;;4.72;2.50;;;4.60;83.10;;;;;;5034391;28;20021;-86
2022/11/12 04:36:18;;;;;;;3.15;2.20;;;4.60;83.10;;;;;;5017842;28;20108;-86
2022/11/12 04:38:43;;;;;;;2.95;2.20;;;4.60;83.20;;;;;;5035210;28;20029;-87
2022/11/12 04:46:37;;;;;;;3.20;2.63;;;4.50;83.30;;;;;;5034398;28;20452;-85
2022/11/12 04:49:02;;;;;;;4.78;2.40;;;4.50;83.50;;;;;;5033906;28;20025;-76
2022/11/12 04:54:12;;;;;;;4.38;3.25;;;4.30;83.90;;;;;;5035650;28;20076;-84
2022/11/12 04:56:38;;;;;;;5.85;3.05;;;4.30;84.20;;;;;;5033891;28;20490;-83
2022/11/12 04:59:03;;;;;;;5.28;3.53;;;4.40;84.30;;;;;;5034052;28;20371;-84
2022/11/12 05:01:29;;;;;;;7.90;4.00;;;4.40;83.60;;;;;;5034034;28;20025;-81
2022/11/12 05:03:54;;;;;;;7.07;4.22;;;4.30;82.50;;;;;;5034066;28;20428;-83
2022/11/12 05:09:04;;;;;;;5.43;3.53;;;4.10;83.40;;;;;;5033720;28;20500;-74
2022/11/12 05:11:29;;;;;;;4.50;3.47;;;4.10;83.80;;;;;;5033696;28;20033;-75
2022/11/12 05:13:55;;;;;;;7.32;4.03;;;4.10;83.80;;;;;;5015416;28;20033;-76
2022/11/12 05:16:20;;;;;;;5.18;3.60;;;4.20;83.70;;;;;;5033410;28;20040;-76
2022/11/12 05:18:46;;;;;;;5.38;3.70;;;4.10;83.40;;;;;;5033084;28;20079;-75
2022/11/12 05:23:56;;;;;;;10.75;4.43;;;4.10;83.40;;;;;;5033098;28;20569;-75
2022/11/12 05:26:21;;;;;;;6.78;3.90;;;4.10;83.50;;;;;;5033009;28;20025;-74
2022/11/12 05:28:47;;;;;;;4.97;3.35;;;4.20;83.40;;;;;;5033047;28;20386;-75
2022/11/12 05:31:12;;;;;;;6.63;3.70;;;4.30;83.50;;;;;;5032804;28;20563;-75
2022/11/12 05:33:38;;;;;;;5.60;3.88;;;4.20;83.50;;;;;;5032970;28;20036;-75
2022/11/12 05:36:03;;;;;;;6.32;4.35;;;4.10;83.80;;;;;;5033002;28;20033;-74
2022/11/12 05:38:29;;;;;;;4.80;3.00;;;4.10;83.80;;;;;;5015103;28;20029;-75
2022/11/12 05:40:54;;;;;;;5.55;3.47;;;4.10;83.90;;;;;;5032760;28;20075;-76
2022/11/12 05:43:20;;;;;;;10.25;4.18;;;4.20;83.70;;;;;;5015251;28;20029;-77
2022/11/12 05:45:45;;;;;;;4.78;3.67;;;4.30;83.50;;;;;;5032851;28;20026;-74
2022/11/12 05:48:11;;;;;;;8.55;4.28;;;4.30;83.50;;;;;;5032628;28;20029;-76
2022/11/12 05:50:37;;;;;;;7.40;4.72;;;4.20;83.30;;;;;;5032541;28;20061;-76
2022/11/12 05:53:02;;;;;;;5.90;3.78;;;4.20;83.60;;;;;;5032913;28;20033;-75
2022/11/12 05:55:28;;;;;;;7.78;3.92;;;4.20;83.70;;;;;;5032627;28;20520;-75
2022/11/12 05:57:53;;;;;;;9.13;4.50;;;4.30;83.80;;;;;;5032698;28;20104;-75
2022/11/12 06:00:19;;;;;;;5.88;3.53;;;4.30;83.60;;;;;;5032862;28;20445;-75
2022/11/12 06:02:44;;;;;;;4.93;3.63;;;4.40;83.50;;;;;;5032827;28;20037;-75
2022/11/12 06:05:10;;;;;;;7.50;4.10;;;4.40;83.50;;;;;;5015088;28;20080;-76
2022/11/12 06:07:35;;;;;;;7.85;3.30;;;4.50;83.40;;;;;;5032531;28;20025;-75
2022/11/12 06:10:01;;;;;;;4.75;3.63;;;4.50;83.20;;;;;;5032717;28;20389;-75
2022/11/12 06:12:26;;;;;;;4.82;3.35;;;4.60;83.20;;;;;;5014815;28;20032;-75
2022/11/12 06:14:52;;;;;;;5.03;3.10;;;4.60;83.20;;;;;;5032669;28;20034;-75
2022/11/12 06:17:17;;;;;;;4.22;3.25;;;4.60;83.20;;;;;;5014823;28;20033;-75
2022/11/12 06:19:43;;;;;;;4.95;3.65;;;4.70;83.10;;;;;;5032451;28;20017;-76
2022/11/12 06:22:09;;;;;;;5.53;3.72;;;4.70;83.10;;;;;;5014790;28;20025;-76
2022/11/12 06:24:34;;;;;;;6.05;3.95;;;4.80;83.00;;;;;;5032111;28;20076;-74
2022/11/12 06:27:00;;;;;;;4.40;3.25;;;4.80;82.60;;;;;;5032161;28;20123;-78
2022/11/12 06:29:25;;;;;;;6.60;3.72;;;4.90;82.40;;;;;;5032216;28;20401;-75
2022/11/12 06:31:51;;;;;;;6.28;3.75;;;4.90;82.20;;;;;;5014008;28;20049;-77
2022/11/12 06:34:16;;;;;;;6.68;4.40;;;5.00;82.10;;;;;;5014313;28;20021;-78
2022/11/12 06:36:42;;;;;;;6.72;4.25;;;5.00;81.90;;;;;;5032123;28;20048;-77
2022/11/12 06:39:10;;;;;;;5.20;3.65;;;5.00;81.70;;;;;;5032836;28;20017;-76
2022/11/12 06:41:35;;;;;;;6.25;4.25;;;5.10;81.50;;;;;;5032337;28;20511;-77
2022/11/12 06:44:03;;;;;;;5.78;3.75;;;5.10;81.30;;;;;;5032270;28;20536;-77
2022/11/12 06:46:29;;;;;;;5.40;4.25;;;5.10;81.20;;;;;;5032221;28;20033;-78
2022/11/12 06:48:54;;;;;;;6.88;5.15;;;5.20;81.00;;;;;;5032248;28;20409;-76
2022/11/12 06:51:21;;;;;;;6.43;4.82;;;5.20;80.80;;;;;;5014440;28;20032;-76
2022/11/12 06:53:47;;;;;;;7.50;4.28;;;5.20;80.40;;;;;;5031983;28;20101;-75
2022/11/12 06:56:13;;;;;;;7.28;3.45;;;5.20;80.20;;;;;;5032516;28;20121;-75
2022/11/12 06:58:39;;;;;;;4.10;3.05;;;5.20;80.20;;;;;;5017874;28;20109;-76
2022/11/12 07:01:13;;;;;;;4.80;3.33;;;5.20;80.20;;;;;;5017767;28;20631;-77
2022/11/12 07:03:40;;;;;;;4.18;3.20;;;5.20;80.20;;;;;;5035606;28;20025;-76
2022/11/12 07:06:11;;;;;;;5.80;3.60;;;5.20;80.60;;;;;;5035402;28;20029;-76
2022/11/12 07:08:38;;;;;;;7.47;3.95;;;5.20;80.40;;;;;;5035578;28;20505;-76
2022/11/12 07:11:04;;;;;;;5.35;4.00;;;5.30;80.30;;;;;;5035410;28;20025;-76
2022/11/12 07:13:32;;;;;;;8.32;3.50;;;5.40;79.90;;;;;;5035250;28;20493;-77
2022/11/12 07:15:59;;;;;;;8.32;6.25;;;5.40;79.90;;;;;;5030000;28;20037;-76
2022/11/12 07:18:25;;;;;;;9.55;6.50;;;5.30;79.60;;;;;;5035235;28;20084;-77
2022/11/12 07:20:51;;;;;;;9.25;5.60;;;5.30;79.90;;;;;;5035331;28;20117;-77
2022/11/12 07:23:17;;;;;;;7.60;4.95;;;5.30;80.10;;;;;;5035217;28;20033;-77
2022/11/12 07:25:42;;;;;;;10.38;6.05;;;5.30;80.30;;;;;;5035193;28;20486;-78
2022/11/12 07:28:08;;;;;;;11.50;6.50;;;5.40;80.20;;;;;;5034899;28;20439;-82
2022/11/12 07:30:33;;;;;;;5.47;3.60;;;5.50;80.20;;;;;;5034839;28;20668;-77
2022/11/12 07:32:59;;;;;;;3.88;2.88;;;5.70;79.90;;;;;;5034851;28;20032;-77
2022/11/12 07:35:24;;;;;;;6.93;3.13;;;5.60;79.70;;;;;;5034778;28;20032;-78
2022/11/12 07:37:50;;;;;;;6.95;4.30;;;5.80;79.70;;;;;;5034609;28;20390;-80
2022/11/12 07:40:15;;;;;;;5.78;4.15;;;5.90;79.20;;;;;;5034650;28;20067;-78
2022/11/12 07:42:41;;;;;;;7.15;5.82;;;5.90;79.80;;;;;;5034942;28;20029;-77
2022/11/12 07:45:07;;;;;;;18.73;11.68;;;5.90;79.80;;;;;;5034687;28;20026;-82
2022/11/12 07:47:32;;;;;;;12.85;9.23;;;5.90;80.00;;;;;;5035576;28;20452;-77
2022/11/12 07:49:59;;;;;;;8.63;7.07;;;6.10;79.90;;;;;;5016744;28;20049;-76
2022/11/12 07:52:24;;;;;;;9.68;6.15;;;6.30;79.60;;;;;;5034413;28;20378;-76
2022/11/12 07:54:50;;;;;;;9.88;6.38;;;6.30;78.90;;;;;;5034187;28;20029;-77
2022/11/12 07:57:15;;;;;;;6.90;4.63;;;6.40;78.30;;;;;;5034098;28;20563;-77
2022/11/12 07:59:41;;;;;;;6.30;4.38;;;6.60;78.30;;;;;;5033933;28;20024;-75
2022/11/12 08:02:08;;;;;;;9.35;5.00;;;6.80;77.60;;;;;;5034387;28;20136;-76
2022/11/12 08:04:34;;;;;;;10.20;6.22;;;7.10;76.70;;;;;;5034195;28;20541;-78
2022/11/12 08:07:00;;;;;;;12.93;7.13;;;7.20;75.90;;;;;;5034057;28;20112;-78
2022/11/12 08:09:25;;;;;;;10.95;6.38;;;7.40;75.00;;;;;;5014931;28;20026;-76
2022/11/12 08:11:53;;;;;;;7.63;4.78;;;7.60;74.70;;;;;;5034124;28;20041;-77
2022/11/12 08:14:18;;;;;;;12.10;6.90;;;7.70;74.30;;;;;;5033737;28;20041;-80
2022/11/12 08:16:45;;;;;;;12.40;6.00;;;7.90;74.10;;;;;;5011024;28;20435;-76
2022/11/12 08:19:11;;;;;;;10.07;5.47;;;8.10;74.00;;;;;;5033574;28;20018;-77
2022/11/12 08:21:36;;;;;;;7.68;3.88;;;8.30;73.80;;;;;;5033774;28;20027;-77
2022/11/12 08:24:02;;;;;;;17.40;5.57;;;8.50;76.00;;;;;;5033471;28;20071;-75
2022/11/12 08:26:28;;;;;;;15.98;4.85;;;8.90;79.50;;;;;;5033725;28;20068;-74
2022/11/12 08:28:53;;;;;;;7.78;4.22;;;9.50;78.20;;;;;;5032849;28;20026;-74
2022/11/12 08:31:21;;;;;;;5.30;3.70;;;10.20;73.00;;;;;;5033351;28;20052;-75
2022/11/12 08:33:47;;;;;;;88.20;16.63;;;10.50;69.70;;;;;;5033602;28;20029;-75
2022/11/12 08:36:15;;;;;;;22.23;6.57;;;11.00;67.50;;;;;;5033490;28;20029;-77
2022/11/12 08:38:41;;;;;;;8.55;4.75;;;11.30;64.70;;;;;;5033530;28;20124;-75
2022/11/12 08:41:09;;;;;;;10.63;5.20;;;11.70;63.20;;;;;;5015713;28;20068;-74
2022/11/12 08:43:35;;;;;;;8.27;4.53;;;12.00;60.50;;;;;;5033445;28;20075;-75
2022/11/12 08:46:02;;;;;;;9.07;4.35;;;12.20;59.50;;;;;;5033345;28;20030;-76
2022/11/12 08:48:29;;;;;;;12.15;4.70;;;12.40;58.80;;;;;;5033285;28;20057;-76
2022/11/12 08:50:55;;;;;;;7.15;3.90;;;12.50;58.60;;;;;;5032971;28;20029;-76
2022/11/12 08:53:23;;;;;;;5.47;3.78;;;12.60;58.70;;;;;;5033195;28;20018;-76
2022/11/12 08:55:53;;;;;;;6.63;3.53;;;12.80;58.80;;;;;;5032795;28;20389;-76
2022/11/12 08:58:18;;;;;;;6.15;3.55;;;13.00;58.50;;;;;;5032994;28;20026;-76
2022/11/12 09:00:45;;;;;;;7.57;3.40;;;13.10;57.00;;;;;;5033235;28;20108;-76
2022/11/12 09:03:14;;;;;;;6.43;3.75;;;13.10;56.80;;;;;;5015251;28;20462;-76
2022/11/12 09:05:39;;;;;;;6.40;3.67;;;13.10;56.00;;;;;;5033071;28;20025;-76
2022/11/12 09:08:09;;;;;;;6.10;3.45;;;13.10;55.00;;;;;;5033292;28;20032;-76
2022/11/12 09:10:35;;;;;;;6.13;3.47;;;13.20;55.30;;;;;;5042332;28;20017;-77
2022/11/12 09:13:02;;;;;;;6.00;3.17;;;12.80;52.50;;;;;;5037091;28;20021;-76
2022/11/12 09:15:29;;;;;;;6.75;3.20;;;12.70;53.70;;;;;;5033094;28;20037;-78
2022/11/12 09:17:55;;;;;;;3.90;2.90;;;12.60;54.10;;;;;;5027532;28;20032;-77
2022/11/12 09:20:21;;;;;;;4.53;3.00;;;12.60;54.50;;;;;;5032306;28;20021;-77
2022/11/12 09:22:47;;;;;;;5.25;3.38;;;12.60;54.80;;;;;;5032717;28;20498;-77
2022/11/12 09:25:12;;;;;;;8.18;4.13;;;12.40;55.80;;;;;;5032771;28;20025;-76
2022/11/12 09:27:38;;;;;;;4.95;3.50;;;12.30;57.90;;;;;;5032439;28;20434;-76
2022/11/12 09:30:05;;;;;;;3.95;3.13;;;12.20;58.00;;;;;;5032431;28;20033;-76
2022/11/12 09:32:31;;;;;;;4.97;3.17;;;12.20;58.40;;;;;;5032191;28;20045;-77
2022/11/12 09:34:57;;;;;;;4.32;3.13;;;12.40;58.30;;;;;;5032344;28;20474;-76
2022/11/12 09:37:22;;;;;;;7.05;3.83;;;12.50;58.40;;;;;;5032371;28;20041;-77
2022/11/12 09:39:48;;;;;;;6.88;4.55;;;12.70;57.80;;;;;;5032325;28;20032;-78
2022/11/12 09:42:20;;;;;;;4.25;3.33;;;12.80;56.90;;;;;;5032602;28;20036;-78
2022/11/12 09:45:13;;;;;;;4.93;3.17;;;12.80;57.10;;;;;;5032599;28;20021;-79
2022/11/12 09:47:50;;;;;;;8.55;3.90;;;12.90;57.30;;;;;;5032765;28;20036;-78
2022/11/12 09:50:24;;;;;;;8.35;3.85;;;13.00;56.80;;;;;;5032470;28;20422;-78
2022/11/12 09:52:55;;;;;;;4.38;3.38;;;13.00;56.80;;;;;;5032468;28;20311;-77
2022/11/12 09:55:33;;;;;;;4.80;3.70;;;13.00;57.00;;;;;;5032726;28;20101;-78
2022/11/12 09:57:59;;;;;;;4.05;3.45;;;13.00;56.70;;;;;;5032446;28;20030;-78
2022/11/12 10:00:25;;;;;;;4.38;3.25;;;13.20;56.50;;;;;;5032196;28;20470;-78
2022/11/12 10:03:06;;;;;;;7.72;3.83;;;13.30;56.80;;;;;;5032329;28;20435;-78
2022/11/12 10:05:35;;;;;;;9.95;6.38;;;13.40;56.40;;;;;;5032240;28;20065;-77
2022/11/12 10:08:38;;;;;;;6.28;4.72;;;13.50;56.30;;;;;;5032050;28;20426;-76
2022/11/12 10:12:30;;;;;;;7.88;5.00;;;13.70;56.20;;;;;;5032054;28;20029;-78
2022/11/12 10:14:47;;;;;;;8.07;4.10;;;13.80;55.70;;;;;;5032217;28;20030;-78
2022/11/12 10:17:28;;;;;;;8.00;4.85;;;14.10;55.80;;;;;;5032038;28;20076;-77
2022/11/12 10:20:38;;;;;;;6.03;4.25;;;14.30;55.80;;;;;;5032079;28;20089;-77
2022/11/12 10:23:25;;;;;;;6.57;4.30;;;14.60;54.70;;;;;;5013751;28;20041;-77
2022/11/12 10:25:55;;;;;;;6.07;4.13;;;14.80;53.00;;;;;;5031571;28;20150;-78
2022/11/12 10:28:41;;;;;;;6.40;4.13;;;15.00;51.80;;;;;;5013743;28;20473;-79
2022/11/12 10:31:20;;;;;;;5.07;3.70;;;15.10;50.60;;;;;;5031263;28;20522;-77
2022/11/12 10:33:46;;;;;;;7.57;3.88;;;15.30;51.10;;;;;;5035742;28;20033;-77
2022/11/12 10:36:23;;;;;;;6.95;4.32;;;15.50;51.00;;;;;;5035628;28;20531;-77
2022/11/12 10:38:52;;;;;;;8.05;4.05;;;15.70;50.30;;;;;;5035701;28;20104;-77
2022/11/12 10:41:22;;;;;;;7.72;4.00;;;15.90;49.30;;;;;;5035507;28;20032;-77
2022/11/12 10:43:58;;;;;;;7.43;4.65;;;16.10;48.90;;;;;;5035807;28;20119;-77
2022/11/12 10:46:25;;;;;;;9.25;4.82;;;16.20;49.00;;;;;;5035741;28;20056;-79
2022/11/12 10:48:58;;;;;;;9.85;5.25;;;15.90;47.50;;;;;;5035484;28;20101;-77
2022/11/12 10:51:30;;;;;;;7.07;4.40;;;15.80;48.80;;;;;;5035586;28;20022;-78
2022/11/12 10:53:56;;;;;;;6.00;4.55;;;16.00;48.70;;;;;;5035354;28;20021;-77
2022/11/12 10:56:29;;;;;;;7.13;4.60;;;15.80;49.20;;;;;;5035250;28;20494;-77
2022/11/12 10:59:18;;;;;;;8.65;4.38;;;16.00;49.20;;;;;;5035275;28;20029;-77
2022/11/12 11:01:52;;;;;;;7.20;5.15;;;16.30;49.10;;;;;;5034964;28;20033;-76
2022/11/12 11:04:35;;;;;;;6.78;4.60;;;16.40;48.30;;;;;;5035168;28;20036;-78
2022/11/12 11:07:21;;;;;;;6.80;4.47;;;16.70;47.90;;;;;;5035067;28;20100;-77
2022/11/12 11:09:59;;;;;;;6.18;4.43;;;16.70;47.70;;;;;;5035129;28;20018;-78
2022/11/12 11:12:32;;;;;;;8.20;4.60;;;16.90;47.70;;;;;;5034701;28;20049;-77
2022/11/12 11:15:19;;;;;;;7.70;4.30;;;17.10;47.30;;;;;;5035058;28;20040;-78
2022/11/12 11:17:45;;;;;;;6.80;4.30;;;17.10;46.50;;;;;;5035180;28;20040;-78
2022/11/12 11:20:25;;;;;;;9.65;4.03;;;17.20;46.40;;;;;;5017298;28;20018;-78
2022/11/12 11:23:20;;;;;;;6.65;4.00;;;17.00;46.60;;;;;;5035055;28;20112;-76
2022/11/12 11:25:52;;;;;;;7.20;4.37;;;16.80;48.30;;;;;;5034788;28;20399;-77
2022/11/12 11:28:37;;;;;;;7.53;5.20;;;16.90;48.70;;;;;;5034850;28;20431;-76
2022/11/12 11:31:30;;;;;;;7.05;3.90;;;16.80;48.20;;;;;;5034840;28;20112;-77
2022/11/12 11:33:59;;;;;;;7.53;5.10;;;16.90;48.10;;;;;;5035153;28;20026;-77
2022/11/12 11:36:27;;;;;;;7.35;3.78;;;17.00;48.00;;;;;;5034349;28;20033;-76
2022/11/12 11:39:11;;;;;;;5.60;3.63;;;17.10;48.60;;;;;;5034752;28;20133;-81
2022/11/12 11:41:37;;;;;;;4.65;3.40;;;17.20;48.40;;;;;;5034736;28;20099;-77
2022/11/12 11:44:18;;;;;;;4.28;3.50;;;17.40;48.10;;;;;;5034317;28;20469;-77
2022/11/12 11:46:52;;;;;;;5.07;3.40;;;17.50;47.50;;;;;;5033862;28;20029;-77
2022/11/12 11:49:32;;;;;;;4.57;3.70;;;17.70;46.90;;;;;;5016340;28;20120;-76
2022/11/12 11:52:22;;;;;;;5.50;4.03;;;17.90;47.00;;;;;;5034334;28;20030;-76
2022/11/12 11:55:12;;;;;;;8.00;4.07;;;17.90;46.90;;;;;;5034155;28;20029;-77
2022/11/12 11:58:17;;;;;;;5.28;3.67;;;18.10;46.40;;;;;;5034322;28;20064;-83
2022/11/12 12:00:49;;;;;;;6.15;4.10;;;18.40;45.80;;;;;;5040406;28;20025;-78
2022/11/12 12:03:17;;;;;;;7.18;4.45;;;18.70;46.10;;;;;;5045713;28;20121;-85
2022/11/12 12:05:57;;;;;;;6.45;4.55;;;19.00;45.20;;;;;;5035360;28;20072;-77
2022/11/12 12:08:38;;;;;;;8.95;5.72;;;19.20;44.10;;;;;;5017871;28;20041;-78
2022/11/12 12:11:03;;;;;;;5.85;5.03;;;19.30;43.20;;;;;;5034389;28;20056;-77
2022/11/12 12:14:12;;;;;;;7.38;5.35;;;19.10;44.40;;;;;;5035562;28;20078;-90
2022/11/12 12:16:58;;;;;;;8.93;5.72;;;19.10;44.20;;;;;;5037748;28;20033;-86
2022/11/12 12:19:42;;;;;;;7.45;5.38;;;19.20;44.20;;;;;;5037644;28;20057;-90
2022/11/12 12:22:18;;;;;;;9.73;5.80;;;19.10;44.70;;;;;;5037403;28;20029;-86
2022/11/12 12:24:54;;;;;;;10.55;5.75;;;19.10;45.00;;;;;;5036984;28;20022;-88
2022/11/12 12:27:24;;;;;;;9.50;6.25;;;19.20;45.00;;;;;;5036947;28;20029;-78
2022/11/12 12:30:13;;;;;;;8.05;6.47;;;19.30;44.30;;;;;;5016369;28;20029;-80
2022/11/12 12:33:01;;;;;;;10.85;6.20;;;19.30;44.20;;;;;;5033135;28;20045;-77
2022/11/12 12:35:33;;;;;;;7.75;5.88;;;19.50;44.20;;;;;;5027486;28;20355;-88
2022/11/12 12:38:19;;;;;;;11.50;6.43;;;19.40;44.10;;;;;;5048944;28;20037;-76
2022/11/12 12:41:26;;;;;;;9.65;7.50;;;19.50;43.90;;;;;;5052680;28;20032;-77
2022/11/12 12:44:12;;;;;;;11.57;7.47;;;19.60;44.30;;;;;;5053386;28;20045;-78
2022/11/12 12:46:39;;;;;;;;;;;19.80;43.40;;;;;;5053553;28;20037;-78
2022/11/12 12:49:06;;;;;;;9.25;7.22;;;20.00;43.10;;;;;;5055092;28;19944;-84
2022/11/12 12:51:33;;;;;;;9.88;7.57;;;20.20;42.60;;;;;;5059690;28;20021;-81
2022/11/12 12:53:58;;;;;;;12.95;6.75;;;20.30;42.20;;;;;;5064412;28;20029;-80
2022/11/12 12:56:27;;;;;;;8.32;6.13;;;20.30;42.70;;;;;;5065609;28;20025;-80
2022/11/12 12:58:54;;;;;;;8.23;6.63;;;20.40;42.50;;;;;;5056693;28;20031;-86
2022/11/12 13:01:19;;;;;;;8.50;6.45;;;20.70;42.20;;;;;;5056430;28;20092;-86
2022/11/12 13:03:52;;;;;;;9.15;6.75;;;20.80;41.70;;;;;;5055199;28;20041;-80
2022/11/12 13:06:21;;;;;;;10.38;6.93;;;20.80;41.60;;;;;;5054157;28;20036;-78
2022/11/12 13:09:16;;;;;;;8.98;6.75;;;20.90;42.00;;;;;;5053518;28;20110;-83
2022/11/12 13:14:34;;;;;;;6.80;5.57;;;20.70;42.10;;;;;;5055086;28;20535;-78
2022/11/12 13:17:06;;;;;;;11.70;6.80;;;20.60;42.20;;;;;;5062002;28;20082;-78
2022/11/12 13:19:35;;;;;;;9.50;6.80;;;20.30;42.40;;;;;;5055822;28;20501;-81
2022/11/12 13:22:16;;;;;;;7.20;5.78;;;19.60;43.90;;;;;;5054287;28;20385;-80
2022/11/12 13:25:01;;;;;;;8.30;5.65;;;19.40;45.00;;;;;;5053144;28;20070;-78
2022/11/12 13:27:41;;;;;;;7.10;5.80;;;19.10;46.00;;;;;;5052384;28;20029;-76
2022/11/12 13:30:27;;;;;;;7.85;6.28;;;18.60;46.90;;;;;;5052480;28;20028;-76
2022/11/12 13:32:54;;;;;;;10.18;8.02;;;18.10;48.20;;;;;;5033751;28;20406;-79
2022/11/12 13:35:22;;;;;;;9.23;7.13;;;17.50;49.80;;;;;;5047736;28;20489;-77
2022/11/12 13:38:01;;;;;;;8.52;6.68;;;17.10;52.10;;;;;;5052461;28;20045;-76
2022/11/12 13:40:41;;;;;;;10.73;8.23;;;16.80;52.70;;;;;;5052342;28;20021;-78